createdAt,value
2023-01-04T00:00:01.148Z,101574.45
2023-01-04T00:05:05.805Z,101577.04
2023-01-04T00:10:09.127Z,101580.54
2023-01-04T00:15:12.288Z,101576.19
2023-01-04T00:20:15.427Z,101573.30
2023-01-04T00:25:18.625Z,101563.08
2023-01-04T00:30:21.779Z,101564.81
2023-01-04T00:35:44.726Z,101567.80
2023-01-04T00:40:48.512Z,101576.06
2023-01-04T00:45:51.731Z,101580.23
2023-01-04T00:50:55.044Z,101583.79
2023-01-04T00:56:01.889Z,101591.89
2023-01-04T01:01:07.124Z,101597.02
2023-01-04T01:06:10.822Z,101604.11
2023-01-04T01:11:14.175Z,101608.12
2023-01-04T01:16:44.400Z,101611.08
2023-01-04T01:21:44.406Z,101602.68
2023-01-04T01:26:47.592Z,101605.39
2023-01-04T01:31:51.002Z,101609.33
2023-01-04T01:36:54.408Z,101611.70
2023-01-04T01:41:57.744Z,101603.10
2023-01-04T01:47:01.619Z,101600.41
2023-01-04T01:52:14.195Z,101587.44
2023-01-04T01:57:22.775Z,101577.56
2023-01-04T02:02:26.050Z,101579.92
2023-01-04T02:07:31.517Z,101581.63
2023-01-04T02:12:34.725Z,101583.06
2023-01-04T02:18:21.559Z,101584.65
2023-01-04T02:23:43.780Z,101577.19
2023-01-04T02:28:53.022Z,101572.48
2023-01-04T02:34:13.193Z,101572.42
2023-01-04T02:39:54.196Z,101559.14
2023-01-04T02:45:27.228Z,101559.89
2023-01-04T02:50:33.856Z,101549.95
2023-01-04T02:55:48.532Z,101548.52
2023-01-04T03:01:46.430Z,101556.52
2023-01-04T03:07:08.139Z,101553.64
2023-01-04T03:12:33.530Z,101552.27
2023-01-04T03:17:45.622Z,101540.58
2023-01-04T03:23:16.732Z,101539.69
2023-01-04T03:28:43.697Z,101522.35
2023-01-04T03:34:06.200Z,101512.84
2023-01-04T03:39:57.616Z,101517.05
2023-01-04T03:45:35.010Z,101518.56
2023-01-04T03:50:57.340Z,101516.42
2023-01-04T03:56:11.094Z,101505.37
2023-01-04T04:01:14.730Z,101501.34
2023-01-04T04:06:48.915Z,101504.63
2023-01-04T04:11:52.097Z,101502.19
2023-01-04T04:16:55.335Z,101502.26
2023-01-04T04:21:58.583Z,101497.13
2023-01-04T04:27:01.715Z,101496.02
2023-01-04T04:32:05.205Z,101491.66
2023-01-04T04:37:09.546Z,101490.41
2023-01-04T04:42:12.777Z,101481.77
2023-01-04T04:47:15.970Z,101483.48
2023-01-04T04:52:19.096Z,101488.20
2023-01-04T04:57:22.374Z,101485.20
2023-01-04T05:02:25.545Z,101481.38
2023-01-04T05:07:28.902Z,101485.30
2023-01-04T05:12:55.792Z,101485.70
2023-01-04T05:18:01.578Z,101490.18
2023-01-04T05:23:05.951Z,101487.71
2023-01-04T05:28:09.243Z,101475.23
2023-01-04T05:33:12.605Z,101461.77
2023-01-04T05:38:17.089Z,101458.75
2023-01-04T05:43:21.873Z,101451.61
2023-01-04T05:48:25.537Z,101445.52
2023-01-04T05:53:28.644Z,101449.92
2023-01-04T05:58:31.742Z,101445.84
2023-01-04T06:03:35.139Z,101430.61
2023-01-04T06:08:38.358Z,101429.76
2023-01-04T06:13:41.528Z,101431.90
2023-01-04T06:18:44.658Z,101422.92
2023-01-04T06:23:47.799Z,101409.75
2023-01-04T06:28:50.897Z,101396.76
2023-01-04T06:33:54.120Z,101387.98
2023-01-04T06:38:58.936Z,101381.76
2023-01-04T06:44:02.792Z,101377.57
2023-01-04T06:49:05.933Z,101374.63
2023-01-04T06:54:12.088Z,101377.27
2023-01-04T06:59:15.264Z,101379.30
2023-01-04T07:04:18.580Z,101377.86
2023-01-04T07:09:21.772Z,101388.30
2023-01-04T07:14:24.897Z,101402.84
2023-01-04T07:19:28.120Z,101406.59
2023-01-04T07:24:31.564Z,101404.65
2023-01-04T07:29:34.710Z,101402.52
2023-01-04T07:34:39.618Z,101391.63
2023-01-04T07:39:44.140Z,101387.61
2023-01-04T07:44:47.268Z,101379.71
2023-01-04T07:49:50.423Z,101372.65
2023-01-04T07:54:54.124Z,101362.96
2023-01-04T07:59:57.293Z,101358.27
2023-01-04T08:05:00.634Z,101349.59
2023-01-04T08:10:04.170Z,101334.92
2023-01-04T08:15:07.708Z,101334.11
2023-01-04T08:20:26.575Z,101321.84
2023-01-04T08:25:29.728Z,101315.35
2023-01-04T08:30:38.529Z,101318.73
2023-01-04T08:35:41.848Z,101304.84
2023-01-04T08:41:00.360Z,101290.77
2023-01-04T08:46:08.853Z,101289.33
2023-01-04T08:51:15.865Z,101290.27
2023-01-04T08:56:19.026Z,101289.89
2023-01-04T09:01:22.339Z,101282.81
2023-01-04T09:06:26.311Z,101284.20
2023-01-04T09:11:29.541Z,101275.17
2023-01-04T09:16:32.748Z,101262.58
2023-01-04T09:21:36.198Z,101245.14
2023-01-04T09:26:39.388Z,101231.23
2023-01-04T09:31:42.578Z,101221.58
2023-01-04T09:36:47.215Z,101209.13
2023-01-04T09:42:06.139Z,101196.58
2023-01-04T09:47:19.701Z,101193.24
2023-01-04T09:52:43.805Z,101171.02
2023-01-04T09:57:56.540Z,101165.01
2023-01-04T10:03:15.755Z,101150.90
2023-01-04T10:08:20.457Z,101147.98
2023-01-04T10:14:01.439Z,101136.23
2023-01-04T10:19:50.487Z,101119.67
2023-01-04T10:24:38.573Z,101102.52
2023-01-04T10:30:07.715Z,101098.73
2023-01-04T10:35:23.143Z,101088.02
2023-01-04T10:40:29.489Z,101049.77
2023-01-04T10:45:57.170Z,101019.16
2023-01-04T10:51:09.854Z,100994.05
2023-01-04T10:56:39.502Z,100980.30
2023-01-04T11:01:48.754Z,100958.70
2023-01-04T11:07:25.782Z,100944.20
2023-01-04T11:12:29.046Z,100934.01
2023-01-04T11:17:33.257Z,100939.42
2023-01-04T11:22:44.345Z,100926.89
2023-01-04T11:27:56.832Z,100911.41
2023-01-04T11:33:06.081Z,100892.77
2023-01-04T11:38:12.059Z,100878.08
2023-01-04T11:43:18.948Z,100860.27
2023-01-04T11:48:40.834Z,100835.91
2023-01-04T11:53:44.651Z,100824.33
2023-01-04T11:59:19.202Z,100811.39
2023-01-04T12:04:45.984Z,100782.17
2023-01-04T12:09:51.914Z,100766.27
2023-01-04T12:14:55.786Z,100753.29
2023-01-04T12:20:10.698Z,100747.58
2023-01-04T12:25:36.795Z,100744.33
2023-01-04T12:30:46.499Z,100726.54
2023-01-04T12:35:58.721Z,100708.73
2023-01-04T12:41:02.209Z,100690.27
2023-01-04T12:47:00.479Z,100687.17
2023-01-04T12:52:31.993Z,100681.09
2023-01-04T12:57:37.562Z,100660.67
2023-01-04T13:02:52.225Z,100651.73
2023-01-04T13:08:01.226Z,100632.02
2023-01-04T13:13:19.555Z,100613.36
2023-01-04T13:18:41.805Z,100599.54
2023-01-04T13:23:54.932Z,100587.77
2023-01-04T13:29:20.758Z,100571.85
2023-01-04T13:34:34.633Z,100559.23
2023-01-04T13:39:47.490Z,100545.05
2023-01-04T13:50:31.945Z,100511.17
2023-01-04T13:55:57.031Z,100496.48
2023-01-04T14:01:06.739Z,100492.15
2023-01-04T14:06:50.508Z,100488.16
2023-01-04T14:12:26.625Z,100471.02
2023-01-04T14:17:48.647Z,100462.70
2023-01-04T14:22:57.240Z,100450.27
2023-01-04T14:28:19.186Z,100434.70
2023-01-04T14:33:30.308Z,100409.26
2023-01-04T14:38:57.553Z,100399.16
2023-01-04T14:44:00.578Z,100391.52
2023-01-04T14:49:04.190Z,100379.23
2023-01-04T14:55:12.865Z,100340.31
2023-01-04T15:00:39.871Z,100324.09
2023-01-04T15:05:51.908Z,100294.15
2023-01-04T15:11:20.063Z,100278.75
2023-01-04T15:16:23.416Z,100271.35
2023-01-04T15:21:26.708Z,100258.77
2023-01-04T15:26:30.590Z,100237.05
2023-01-04T15:31:38.940Z,100226.17
2023-01-04T15:36:43.050Z,100227.37
2023-01-04T15:42:04.981Z,100219.89
2023-01-04T15:47:08.241Z,100199.77
2023-01-04T15:52:11.651Z,100188.52
2023-01-04T15:57:14.811Z,100180.76
2023-01-04T16:02:18.104Z,100168.47
2023-01-04T16:07:21.610Z,100151.34
2023-01-04T16:12:56.674Z,100144.03
2023-01-04T16:18:00.272Z,100129.17
2023-01-04T16:23:03.470Z,100116.20
2023-01-04T16:28:40.080Z,100108.40
2023-01-04T16:47:10.561Z,100059.30
2023-01-04T16:52:16.439Z,100044.30
2023-01-04T16:58:19.317Z,100030.80
2023-01-04T17:30:43.215Z,99980.87
2023-01-04T17:36:23.254Z,99947.90
2023-01-04T17:41:28.576Z,99942.70
2023-01-04T17:46:34.832Z,99927.23
2023-01-04T17:51:40.127Z,99915.77
2023-01-04T17:56:43.476Z,99905.36
2023-01-04T18:01:46.729Z,99890.67
2023-01-04T18:06:49.983Z,99877.37
2023-01-04T18:11:53.397Z,99864.04
2023-01-04T18:16:57.636Z,99850.83
2023-01-04T18:22:01.825Z,99837.66
2023-01-04T18:27:23.795Z,99829.89
2023-01-04T18:32:28.154Z,99827.45
2023-01-04T18:37:35.977Z,99818.60
2023-01-04T18:42:39.213Z,99804.16
2023-01-04T18:47:43.000Z,99781.13
2023-01-04T18:52:46.206Z,99773.67
2023-01-04T18:57:49.845Z,99766.45
2023-01-04T19:02:53.097Z,99760.55
2023-01-04T19:07:56.668Z,99750.27
2023-01-04T19:12:59.812Z,99732.31
2023-01-04T19:18:02.954Z,99726.68
2023-01-04T19:23:07.835Z,99726.66
2023-01-04T19:28:12.538Z,99718.66
2023-01-04T19:33:16.500Z,99700.08
2023-01-04T19:38:19.746Z,99692.92
2023-01-04T19:43:22.971Z,99681.80
2023-01-04T19:48:26.623Z,99676.80
2023-01-04T19:53:29.894Z,99671.91
2023-01-04T19:58:33.137Z,99671.82
2023-01-04T20:03:36.372Z,99658.88
2023-01-04T20:08:40.683Z,99652.00
2023-01-04T20:13:43.843Z,99643.24
2023-01-04T20:18:47.099Z,99638.20
2023-01-04T20:23:50.576Z,99637.15
2023-01-04T20:28:53.708Z,99629.30
2023-01-04T20:33:57.229Z,99627.13
2023-01-04T20:39:02.551Z,99619.08
2023-01-04T20:44:05.776Z,99611.16
2023-01-04T20:49:08.978Z,99608.35
2023-01-04T20:54:12.211Z,99604.16
2023-01-04T20:59:15.336Z,99598.70
2023-01-04T21:04:18.585Z,99594.61
2023-01-04T21:09:21.765Z,99588.11
2023-01-04T21:14:25.166Z,99577.93
2023-01-04T21:19:28.313Z,99568.52
2023-01-04T21:24:33.620Z,99565.04
2023-01-04T21:29:36.815Z,99555.84
2023-01-04T21:34:40.051Z,99549.15
2023-01-04T21:39:43.170Z,99526.83
2023-01-04T21:44:46.291Z,99512.84
2023-01-04T21:49:50.810Z,99501.79
2023-01-04T21:54:54.195Z,99498.09
2023-01-04T21:59:57.389Z,99502.06
2023-01-04T22:05:00.989Z,99493.67
2023-01-04T22:10:04.752Z,99501.52
2023-01-04T22:15:08.342Z,99486.87
2023-01-04T22:20:11.788Z,99472.42
2023-01-04T22:25:15.225Z,99463.62
2023-01-04T22:30:18.437Z,99454.98
2023-01-04T22:35:22.411Z,99442.09
2023-01-04T22:40:25.550Z,99432.27
2023-01-04T22:45:28.739Z,99423.82
2023-01-04T22:50:32.218Z,99413.98
2023-01-04T22:56:17.010Z,99398.45
2023-01-04T23:01:05.719Z,99390.62
2023-01-04T23:06:12.264Z,99380.48
2023-01-04T23:11:17.642Z,99361.25
2023-01-04T23:16:26.184Z,99351.91
2023-01-04T23:21:34.634Z,99343.56
2023-01-04T23:26:37.931Z,99339.24
2023-01-04T23:31:41.584Z,99330.14
2023-01-04T23:36:44.804Z,99332.52
2023-01-04T23:41:48.163Z,99317.14
2023-01-04T23:46:57.450Z,99313.55
2023-01-04T23:52:01.518Z,99294.64
2023-01-04T23:57:05.062Z,99291.70
